sensor_id;sensor_type;location;lat;lon;timestamp;pressure;altitude;pressure_sealevel;temperature;humidity
62011;BME280;47967;51.756;10.174;2023-03-25T05:03:18;98466.44;;;8.71;81.15
62011;BME280;47967;51.756;10.174;2023-03-25T05:07:24;98480.47;;;8.73;80.50
62011;BME280;47967;51.756;10.174;2023-03-25T05:11:27;98472.19;;;8.74;80.12
62011;BME280;47967;51.756;10.174;2023-03-25T05:15:31;98473.47;;;8.72;79.91
62011;BME280;47967;51.756;10.174;2023-03-25T05:19:37;98471.34;;;8.74;79.83
62011;BME280;47967;51.756;10.174;2023-03-25T05:23:44;98469.66;;;8.79;79.34
62011;BME280;47967;51.756;10.174;2023-03-25T05:27:47;98474.16;;;8.86;78.82
62011;BME280;47967;51.756;10.174;2023-03-25T05:31:50;98475.84;;;8.80;78.56
62011;BME280;47967;51.756;10.174;2023-03-25T05:35:53;98476.41;;;8.89;78.38
62011;BME280;47967;51.756;10.174;2023-03-25T05:39:57;98475.66;;;8.81;78.42
62011;BME280;47967;51.756;10.174;2023-03-25T05:44:00;98483.72;;;8.81;78.13
62011;BME280;47967;51.756;10.174;2023-03-25T05:48:03;98488.78;;;8.90;77.18
62011;BME280;47967;51.756;10.174;2023-03-25T05:52:07;98482.75;;;8.94;76.41
62011;BME280;47967;51.756;10.174;2023-03-25T05:56:12;98493.50;;;8.94;77.64
62011;BME280;47967;51.756;10.174;2023-03-25T06:00:16;98488.25;;;8.81;76.94
62011;BME280;47967;51.756;10.174;2023-03-25T06:04:19;98474.91;;;8.93;77.74
62011;BME280;47967;51.756;10.174;2023-03-25T06:08:23;98486.28;;;8.70;78.77
62011;BME280;47967;51.756;10.174;2023-03-25T06:12:27;98487.41;;;8.62;79.24
62011;BME280;47967;51.756;10.174;2023-03-25T06:16:33;98488.91;;;8.51;79.96
62011;BME280;47967;51.756;10.174;2023-03-25T06:20:36;98489.31;;;8.55;79.74
62011;BME280;47967;51.756;10.174;2023-03-25T06:24:41;98483.88;;;8.61;79.62
62011;BME280;47967;51.756;10.174;2023-03-25T06:28:44;98490.34;;;8.54;79.56
62011;BME280;47967;51.756;10.174;2023-03-25T06:32:47;98499.19;;;8.86;78.73
62011;BME280;47967;51.756;10.174;2023-03-25T06:36:51;98502.25;;;8.90;78.19
62011;BME280;47967;51.756;10.174;2023-03-25T06:40:55;98496.81;;;8.96;77.99
62011;BME280;47967;51.756;10.174;2023-03-25T06:44:58;98496.06;;;9.08;77.79
62011;BME280;47967;51.756;10.174;2023-03-25T06:49:16;98505.66;;;9.22;76.65
62011;BME280;47967;51.756;10.174;2023-03-25T06:53:19;98499.19;;;9.49;75.38
62011;BME280;47967;51.756;10.174;2023-03-25T06:57:23;98503.53;;;9.50;74.23
62011;BME280;47967;51.756;10.174;2023-03-25T07:01:25;98514.16;;;9.63;73.66
62011;BME280;47967;51.756;10.174;2023-03-25T07:05:28;98517.50;;;9.58;73.56
62011;BME280;47967;51.756;10.174;2023-03-25T07:09:31;98518.78;;;9.74;73.52
62011;BME280;47967;51.756;10.174;2023-03-25T07:13:35;98523.53;;;9.91;72.34
62011;BME280;47967;51.756;10.174;2023-03-25T07:17:37;98517.41;;;9.84;71.35
62011;BME280;47967;51.756;10.174;2023-03-25T07:21:40;98517.63;;;9.82;71.96
62011;BME280;47967;51.756;10.174;2023-03-25T07:25:43;98517.41;;;10.02;70.70
62011;BME280;47967;51.756;10.174;2023-03-25T07:29:47;98506.75;;;10.07;69.70
62011;BME280;47967;51.756;10.174;2023-03-25T07:33:49;98526.00;;;10.11;69.77
62011;BME280;47967;51.756;10.174;2023-03-25T07:37:52;98517.47;;;9.96;69.73
62011;BME280;47967;51.756;10.174;2023-03-25T07:41:55;98513.72;;;9.97;70.04
62011;BME280;47967;51.756;10.174;2023-03-25T07:46:21;98513.44;;;10.05;69.09
62011;BME280;47967;51.756;10.174;2023-03-25T07:50:23;98514.06;;;10.19;68.76
62011;BME280;47967;51.756;10.174;2023-03-25T07:54:26;98506.44;;;10.46;67.43
62011;BME280;47967;51.756;10.174;2023-03-25T07:58:29;98519.38;;;10.68;66.68
62011;BME280;47967;51.756;10.174;2023-03-25T08:02:32;98515.38;;;10.70;65.40
62011;BME280;47967;51.756;10.174;2023-03-25T08:06:35;98516.88;;;10.54;66.06
62011;BME280;47967;51.756;10.174;2023-03-25T08:10:40;98523.31;;;10.41;66.32
62011;BME280;47967;51.756;10.174;2023-03-25T08:14:43;98521.50;;;10.05;67.91
62011;BME280;47967;51.756;10.174;2023-03-25T08:18:47;98535.81;;;10.36;67.62
62011;BME280;47967;51.756;10.174;2023-03-25T08:22:53;98534.84;;;10.61;67.70
62011;BME280;47967;51.756;10.174;2023-03-25T08:26:57;98538.06;;;10.81;67.46
62011;BME280;47967;51.756;10.174;2023-03-25T08:31:15;98542.16;;;10.84;68.09
62011;BME280;47967;51.756;10.174;2023-03-25T08:35:22;98546.72;;;10.60;69.38
62011;BME280;47967;51.756;10.174;2023-03-25T08:39:25;98538.56;;;10.48;69.23
62011;BME280;47967;51.756;10.174;2023-03-25T08:43:30;98536.53;;;10.73;69.89
62011;BME280;47967;51.756;10.174;2023-03-25T08:47:33;98538.34;;;10.49;71.17
62011;BME280;47967;51.756;10.174;2023-03-25T08:51:37;98545.28;;;10.27;71.32
62011;BME280;47967;51.756;10.174;2023-03-25T08:55:40;98527.47;;;10.68;70.95
62011;BME280;47967;51.756;10.174;2023-03-25T08:59:42;98525.38;;;10.70;71.25
62011;BME280;47967;51.756;10.174;2023-03-25T09:03:45;98528.44;;;10.73;70.89
62011;BME280;47967;51.756;10.174;2023-03-25T09:07:49;98529.34;;;10.67;70.67
62011;BME280;47967;51.756;10.174;2023-03-25T09:11:52;98528.88;;;10.70;70.74
62011;BME280;47967;51.756;10.174;2023-03-25T09:15:56;98529.34;;;10.67;72.28
62011;BME280;47967;51.756;10.174;2023-03-25T09:19:59;98518.56;;;10.67;71.22
62011;BME280;47967;51.756;10.174;2023-03-25T09:24:03;98512.72;;;10.82;70.73
62011;BME280;47967;51.756;10.174;2023-03-25T09:28:05;98528.44;;;10.73;69.68
62011;BME280;47967;51.756;10.174;2023-03-25T09:32:08;98519.66;;;10.90;70.85
62011;BME280;47967;51.756;10.174;2023-03-25T09:36:11;98511.34;;;11.03;70.43
62011;BME280;47967;51.756;10.174;2023-03-25T09:40:16;98507.78;;;10.91;70.74
62011;BME280;47967;51.756;10.174;2023-03-25T09:44:25;98502.19;;;11.40;69.96
62011;BME280;47967;51.756;10.174;2023-03-25T09:48:33;98497.44;;;11.47;68.98
62011;BME280;47967;51.756;10.174;2023-03-25T09:52:44;98504.97;;;11.45;66.36
62011;BME280;47967;51.756;10.174;2023-03-25T09:56:52;98494.06;;;11.40;67.03
62011;BME280;47967;51.756;10.174;2023-03-25T10:01:00;98519.44;;;11.27;66.72
62011;BME280;47967;51.756;10.174;2023-03-25T10:05:32;98526.09;;;11.48;67.65
62011;BME280;47967;51.756;10.174;2023-03-25T10:09:44;98528.84;;;11.36;67.75
62011;BME280;47967;51.756;10.174;2023-03-25T10:13:54;98536.22;;;11.29;66.42
62011;BME280;47967;51.756;10.174;2023-03-25T10:18:16;98532.97;;;10.61;69.15
62011;BME280;47967;51.756;10.174;2023-03-25T10:22:26;98531.53;;;10.47;69.99
62011;BME280;47967;51.756;10.174;2023-03-25T10:26:36;98543.13;;;10.47;70.93
62011;BME280;47967;51.756;10.174;2023-03-25T10:30:45;98545.50;;;10.44;70.69
62011;BME280;47967;51.756;10.174;2023-03-25T10:34:50;98535.78;;;10.05;72.65
62011;BME280;47967;51.756;10.174;2023-03-25T10:38:54;98531.69;;;10.33;72.93
62011;BME280;47967;51.756;10.174;2023-03-25T10:43:13;98529.31;;;10.55;70.08
62011;BME280;47967;51.756;10.174;2023-03-25T10:47:22;98534.28;;;10.70;69.41
62011;BME280;47967;51.756;10.174;2023-03-25T10:51:26;98513.78;;;10.81;69.69
62011;BME280;47967;51.756;10.174;2023-03-25T10:55:32;98522.34;;;11.02;67.27
62011;BME280;47967;51.756;10.174;2023-03-25T10:59:40;98515.53;;;11.47;64.15
62011;BME280;47967;51.756;10.174;2023-03-25T11:03:49;98514.47;;;12.58;62.99
62011;BME280;47967;51.756;10.174;2023-03-25T11:07:54;98505.63;;;12.80;58.77
62011;BME280;47967;51.756;10.174;2023-03-25T11:11:59;98500.94;;;12.58;59.46
62011;BME280;47967;51.756;10.174;2023-03-25T11:16:02;98497.91;;;12.89;58.25
62011;BME280;47967;51.756;10.174;2023-03-25T11:20:16;98494.94;;;12.39;58.33
62011;BME280;47967;51.756;10.174;2023-03-25T11:24:20;98492.25;;;12.56;57.42
62011;BME280;47967;51.756;10.174;2023-03-25T11:28:34;98506.56;;;12.40;57.03
62011;BME280;47967;51.756;10.174;2023-03-25T11:32:38;98504.06;;;12.50;54.70
62011;BME280;47967;51.756;10.174;2023-03-25T11:36:51;98499.06;;;13.10;56.42
62011;BME280;47967;51.756;10.174;2023-03-25T11:40:56;98479.28;;;13.49;55.22
62011;BME280;47967;51.756;10.174;2023-03-25T11:45:00;98483.22;;;13.58;53.79
62011;BME280;47967;51.756;10.174;2023-03-25T11:49:08;98478.72;;;13.91;52.13
62011;BME280;47967;51.756;10.174;2023-03-25T11:53:15;98480.56;;;13.85;53.31
62011;BME280;47967;51.756;10.174;2023-03-25T11:57:22;98492.53;;;13.45;52.80
62011;BME280;47967;51.756;10.174;2023-03-25T12:01:28;98491.16;;;13.08;53.29
62011;BME280;47967;51.756;10.174;2023-03-25T12:05:32;98496.38;;;12.93;53.91
62011;BME280;47967;51.756;10.174;2023-03-25T12:09:36;98495.44;;;12.53;56.46
62011;BME280;47967;51.756;10.174;2023-03-25T12:13:48;98503.09;;;13.07;54.88
62011;BME280;47967;51.756;10.174;2023-03-25T12:18:10;98479.59;;;13.13;55.22
62011;BME280;47967;51.756;10.174;2023-03-25T12:22:29;98471.63;;;13.63;55.13
62011;BME280;47967;51.756;10.174;2023-03-25T12:26:43;98466.31;;;13.73;52.87
62011;BME280;47967;51.756;10.174;2023-03-25T12:30:55;98445.94;;;13.92;53.69
62011;BME280;47967;51.756;10.174;2023-03-25T12:35:10;98462.31;;;14.03;53.80
62011;BME280;47967;51.756;10.174;2023-03-25T12:39:33;98452.97;;;13.66;53.39
62011;BME280;47967;51.756;10.174;2023-03-25T12:43:56;98444.75;;;13.83;55.25
62011;BME280;47967;51.756;10.174;2023-03-25T12:48:03;98446.16;;;13.41;55.08
62011;BME280;47967;51.756;10.174;2023-03-25T12:52:12;98451.66;;;13.47;56.72
62011;BME280;47967;51.756;10.174;2023-03-25T12:56:30;98454.69;;;13.50;54.66
62011;BME280;47967;51.756;10.174;2023-03-25T13:00:44;98463.75;;;13.61;55.64
62011;BME280;47967;51.756;10.174;2023-03-25T13:04:55;98453.91;;;13.55;54.73
62011;BME280;47967;51.756;10.174;2023-03-25T13:09:07;98445.56;;;13.84;54.25
62011;BME280;47967;51.756;10.174;2023-03-25T13:13:14;98447.50;;;13.61;54.50
62011;BME280;47967;51.756;10.174;2023-03-25T13:17:25;98441.28;;;13.04;55.68
62011;BME280;47967;51.756;10.174;2023-03-25T13:21:32;98439.81;;;13.13;56.43
62011;BME280;47967;51.756;10.174;2023-03-25T13:25:43;98442.72;;;12.56;57.64
62011;BME280;47967;51.756;10.174;2023-03-25T13:29:50;98474.44;;;12.43;59.49
62011;BME280;47967;51.756;10.174;2023-03-25T13:34:05;98478.53;;;12.46;60.50
62011;BME280;47967;51.756;10.174;2023-03-25T13:38:18;98480.34;;;11.82;66.75
62011;BME280;47967;51.756;10.174;2023-03-25T13:42:26;98488.03;;;11.62;68.71
62011;BME280;47967;51.756;10.174;2023-03-25T13:46:36;98483.81;;;11.66;69.05
62011;BME280;47967;51.756;10.174;2023-03-25T13:50:41;98488.88;;;11.62;68.82
62011;BME280;47967;51.756;10.174;2023-03-25T13:54:46;98490.38;;;11.58;69.83
62011;BME280;47967;51.756;10.174;2023-03-25T13:59:02;98482.88;;;11.60;68.64
62011;BME280;47967;51.756;10.174;2023-03-25T14:03:41;98474.06;;;12.52;68.36
62011;BME280;47967;51.756;10.174;2023-03-25T14:07:58;98470.03;;;13.44;65.50
62011;BME280;47967;51.756;10.174;2023-03-25T14:12:07;98467.66;;;13.70;62.77
62011;BME280;47967;51.756;10.174;2023-03-25T14:16:14;98455.34;;;14.12;61.23
62011;BME280;47967;51.756;10.174;2023-03-25T14:20:22;98466.06;;;13.97;61.44
62011;BME280;47967;51.756;10.174;2023-03-25T14:24:31;98467.53;;;13.82;60.09
62011;BME280;47967;51.756;10.174;2023-03-25T14:28:39;98465.09;;;13.41;62.43
62011;BME280;47967;51.756;10.174;2023-03-25T14:32:44;98505.81;;;12.73;64.45
62011;BME280;47967;51.756;10.174;2023-03-25T14:37:16;98497.56;;;11.52;68.25
62011;BME280;47967;51.756;10.174;2023-03-25T14:41:57;98508.19;;;11.18;69.15
62011;BME280;47967;51.756;10.174;2023-03-25T14:46:04;98490.38;;;11.58;69.68
62011;BME280;47967;51.756;10.174;2023-03-25T14:50:29;98484.22;;;12.61;67.68
62011;BME280;47967;51.756;10.174;2023-03-25T14:54:33;98475.91;;;13.58;64.29
62011;BME280;47967;51.756;10.174;2023-03-25T14:58:38;98462.47;;;13.91;63.08
62011;BME280;47967;51.756;10.174;2023-03-25T15:02:42;98458.44;;;13.71;62.41
62011;BME280;47967;51.756;10.174;2023-03-25T15:06:51;98454.63;;;13.67;61.83
62011;BME280;47967;51.756;10.174;2023-03-25T15:11:03;98463.34;;;13.13;61.29
62011;BME280;47967;51.756;10.174;2023-03-25T15:15:25;98458.63;;;12.86;61.18
62011;BME280;47967;51.756;10.174;2023-03-25T15:19:28;98460.13;;;12.43;62.02
62011;BME280;47967;51.756;10.174;2023-03-25T15:23:41;98466.06;;;12.28;64.21
62011;BME280;47967;51.756;10.174;2023-03-25T15:28:01;98464.31;;;12.68;63.16
62011;BME280;47967;51.756;10.174;2023-03-25T15:32:20;98452.16;;;12.53;61.76
62011;BME280;47967;51.756;10.174;2023-03-25T15:36:38;98444.28;;;12.52;62.32
62011;BME280;47967;51.756;10.174;2023-03-25T15:40:59;98455.69;;;12.54;62.79
62011;BME280;47967;51.756;10.174;2023-03-25T15:45:25;98455.59;;;12.65;63.29
62011;BME280;47967;51.756;10.174;2023-03-25T15:50:07;98446.59;;;12.43;63.16
62011;BME280;47967;51.756;10.174;2023-03-25T15:54:27;98430.59;;;12.41;62.53
62011;BME280;47967;51.756;10.174;2023-03-25T15:58:35;98431.53;;;12.18;62.68
62011;BME280;47967;51.756;10.174;2023-03-25T16:02:46;98427.28;;;12.05;62.26
62011;BME280;47967;51.756;10.174;2023-03-25T16:06:52;98426.69;;;12.03;62.53
62011;BME280;47967;51.756;10.174;2023-03-25T16:11:12;98463.50;;;11.92;61.65
62011;BME280;47967;51.756;10.174;2023-03-25T16:15:17;98460.94;;;11.45;62.95
62011;BME280;47967;51.756;10.174;2023-03-25T16:19:22;98462.38;;;11.35;63.26
62011;BME280;47967;51.756;10.174;2023-03-25T16:23:28;98453.44;;;11.35;63.71
62011;BME280;47967;51.756;10.174;2023-03-25T16:27:34;98450.38;;;11.43;63.38
62011;BME280;47967;51.756;10.174;2023-03-25T16:31:36;98459.97;;;11.51;63.35
62011;BME280;47967;51.756;10.174;2023-03-25T16:35:44;98454.53;;;11.34;61.31
62011;BME280;47967;51.756;10.174;2023-03-25T16:39:53;98450.97;;;11.33;63.10
62011;BME280;47967;51.756;10.174;2023-03-25T16:43:56;98462.03;;;11.08;64.88
62011;BME280;47967;51.756;10.174;2023-03-25T16:48:03;98464.41;;;10.93;64.91
62011;BME280;47967;51.756;10.174;2023-03-25T16:52:10;98474.38;;;10.92;65.59
62011;BME280;47967;51.756;10.174;2023-03-25T16:56:23;98482.00;;;10.95;64.25
62011;BME280;47967;51.756;10.174;2023-03-25T17:00:47;98479.78;;;10.80;63.68
62011;BME280;47967;51.756;10.174;2023-03-25T17:04:52;98473.66;;;10.85;63.56
62011;BME280;47967;51.756;10.174;2023-03-25T17:08:59;98479.91;;;10.85;63.70
62011;BME280;47967;51.756;10.174;2023-03-25T17:13:07;98481.41;;;10.69;63.86
62011;BME280;47967;51.756;10.174;2023-03-25T17:17:20;98500.63;;;10.61;63.97
62011;BME280;47967;51.756;10.174;2023-03-25T17:21:27;98481.38;;;10.57;63.89
62011;BME280;47967;51.756;10.174;2023-03-25T17:25:33;98501.66;;;10.60;64.08
62011;BME280;47967;51.756;10.174;2023-03-25T17:29:48;98501.53;;;10.55;64.04
62011;BME280;47967;51.756;10.174;2023-03-25T17:33:52;98509.00;;;10.41;64.92
62011;BME280;47967;51.756;10.174;2023-03-25T17:37:55;98502.09;;;10.15;65.32
62011;BME280;47967;51.756;10.174;2023-03-25T17:42:00;98515.72;;;10.20;65.82
62011;BME280;47967;51.756;10.174;2023-03-25T17:46:05;98525.19;;;10.22;65.99
62011;BME280;47967;51.756;10.174;2023-03-25T17:50:15;98533.06;;;10.24;65.94
62011;BME280;47967;51.756;10.174;2023-03-25T17:54:18;98542.78;;;10.25;65.17
62011;BME280;47967;51.756;10.174;2023-03-25T17:58:21;98536.03;;;10.34;65.62
62011;BME280;47967;51.756;10.174;2023-03-25T18:02:26;98541.00;;;10.19;64.96
62011;BME280;47967;51.756;10.174;2023-03-25T18:06:28;98532.59;;;10.27;65.81
62011;BME280;47967;51.756;10.174;2023-03-25T18:10:32;98539.06;;;10.26;65.95
62011;BME280;47967;51.756;10.174;2023-03-25T18:14:36;98539.06;;;10.26;66.07
62011;BME280;47967;51.756;10.174;2023-03-25T18:18:40;98532.28;;;10.35;67.01
62011;BME280;47967;51.756;10.174;2023-03-25T18:22:42;98519.00;;;10.22;67.15
62011;BME280;47967;51.756;10.174;2023-03-25T18:26:45;98533.59;;;10.14;67.51
62011;BME280;47967;51.756;10.174;2023-03-25T18:30:50;98558.19;;;10.06;68.62
62011;BME280;47967;51.756;10.174;2023-03-25T18:34:54;98587.38;;;9.90;72.14
62011;BME280;47967;51.756;10.174;2023-03-25T18:38:57;98590.28;;;9.70;73.65
62011;BME280;47967;51.756;10.174;2023-03-25T18:43:00;98592.13;;;9.33;76.84
62011;BME280;47967;51.756;10.174;2023-03-25T18:47:02;98615.41;;;8.63;78.46
62011;BME280;47967;51.756;10.174;2023-03-25T18:51:09;98631.25;;;8.26;82.75
62011;BME280;47967;51.756;10.174;2023-03-25T18:55:12;98551.06;;;7.77;85.19
62011;BME280;47967;51.756;10.174;2023-03-25T18:59:16;98575.66;;;7.74;86.90
62011;BME280;47967;51.756;10.174;2023-03-25T19:03:20;98571.50;;;7.85;87.23
62011;BME280;47967;51.756;10.174;2023-03-25T19:07:31;98581.34;;;7.98;87.36
62011;BME280;47967;51.756;10.174;2023-03-25T19:11:35;98581.31;;;8.11;87.26
62011;BME280;47967;51.756;10.174;2023-03-25T19:15:38;98586.69;;;8.11;86.76
62011;BME280;47967;51.756;10.174;2023-03-25T19:19:40;98612.09;;;8.15;85.93
62011;BME280;47967;51.756;10.174;2023-03-25T19:23:45;98638.34;;;8.13;85.33
62011;BME280;47967;51.756;10.174;2023-03-25T19:27:47;98630.94;;;7.95;84.75
62011;BME280;47967;51.756;10.174;2023-03-25T19:31:51;98627.84;;;7.92;84.93
62011;BME280;47967;51.756;10.174;2023-03-25T19:35:54;98637.59;;;7.86;83.84
62011;BME280;47967;51.756;10.174;2023-03-25T19:39:59;98654.13;;;7.83;82.76
62011;BME280;47967;51.756;10.174;2023-03-25T19:44:02;98643.19;;;7.78;80.82
62011;BME280;47967;51.756;10.174;2023-03-25T19:48:04;98652.91;;;7.79;80.75
62011;BME280;47967;51.756;10.174;2023-03-25T19:52:07;98653.50;;;7.81;79.96
62011;BME280;47967;51.756;10.174;2023-03-25T19:56:11;98635.72;;;7.87;79.79
62011;BME280;47967;51.756;10.174;2023-03-25T20:00:16;98635.50;;;7.95;80.11
62011;BME280;47967;51.756;10.174;2023-03-25T20:04:20;98647.28;;;7.94;80.24
62011;BME280;47967;51.756;10.174;2023-03-25T20:08:22;98642.28;;;8.04;79.84
62011;BME280;47967;51.756;10.174;2023-03-25T20:12:28;98642.50;;;8.09;79.80
62011;BME280;47967;51.756;10.174;2023-03-25T20:16:31;98643.09;;;8.11;79.73
62011;BME280;47967;51.756;10.174;2023-03-25T20:20:35;98640.97;;;8.20;79.20
62011;BME280;47967;51.756;10.174;2023-03-25T20:24:37;98652.56;;;8.21;79.10
62011;BME280;47967;51.756;10.174;2023-03-25T20:28:41;98652.75;;;8.26;79.00
62011;BME280;47967;51.756;10.174;2023-03-25T20:32:45;98653.19;;;8.23;79.63
62011;BME280;47967;51.756;10.174;2023-03-25T20:36:49;98647.16;;;8.27;79.53
62011;BME280;47967;51.756;10.174;2023-03-25T20:40:52;98648.59;;;8.30;79.54
62011;BME280;47967;51.756;10.174;2023-03-25T20:44:56;98648.19;;;8.33;79.81
62011;BME280;47967;51.756;10.174;2023-03-25T20:48:59;98651.50;;;8.35;79.93
62011;BME280;47967;51.756;10.174;2023-03-25T20:53:02;98647.56;;;8.31;79.68
62011;BME280;47967;51.756;10.174;2023-03-25T20:57:06;98657.91;;;8.34;79.69
62011;BME280;47967;51.756;10.174;2023-03-25T21:01:10;98654.56;;;8.39;79.81
62011;BME280;47967;51.756;10.174;2023-03-25T21:05:16;98651.69;;;8.33;80.23
62011;BME280;47967;51.756;10.174;2023-03-25T21:09:18;98662.28;;;8.22;80.08
62011;BME280;47967;51.756;10.174;2023-03-25T21:13:21;98663.91;;;8.29;80.28
62011;BME280;47967;51.756;10.174;2023-03-25T21:17:26;98663.94;;;8.23;80.15
62011;BME280;47967;51.756;10.174;2023-03-25T21:21:30;98655.88;;;8.23;80.61
62011;BME280;47967;51.756;10.174;2023-03-25T21:25:33;98653.84;;;8.11;80.21
62011;BME280;47967;51.756;10.174;2023-03-25T21:29:35;98665.19;;;8.13;80.41
62011;BME280;47967;51.756;10.174;2023-03-25T21:33:39;98665.63;;;8.10;80.29
62011;BME280;47967;51.756;10.174;2023-03-25T21:37:42;98657.13;;;8.13;80.29
62011;BME280;47967;51.756;10.174;2023-03-25T21:41:44;98663.16;;;8.09;80.15
62011;BME280;47967;51.756;10.174;2023-03-25T21:45:47;98662.50;;;8.13;79.80
62011;BME280;47967;51.756;10.174;2023-03-25T21:49:52;98673.47;;;8.12;79.69
62011;BME280;47967;51.756;10.174;2023-03-25T21:53:55;98661.03;;;8.17;79.42
62011;BME280;47967;51.756;10.174;2023-03-25T21:57:58;98656.94;;;8.15;79.44
